sensor_id;sensor_type;location;lat;lon;timestamp;P1;durP1;ratioP1;P2;durP2;ratioP2
10987;SDS011;5547;42.672;23.230;2023-12-22T00:03:35;36.40;;;23.95;;
10987;SDS011;5547;42.672;23.230;2023-12-22T00:07:34;35.50;;;23.75;;
10987;SDS011;5547;42.672;23.230;2023-12-22T00:11:33;35.38;;;24.27;;
10987;SDS011;5547;42.672;23.230;2023-12-22T00:15:32;37.83;;;24.83;;
10987;SDS011;5547;42.672;23.230;2023-12-22T00:19:31;35.40;;;23.48;;
10987;SDS011;5547;42.672;23.230;2023-12-22T00:23:30;40.28;;;23.75;;
10987;SDS011;5547;42.672;23.230;2023-12-22T00:27:29;36.35;;;22.63;;
10987;SDS011;5547;42.672;23.230;2023-12-22T00:31:28;38.70;;;24.23;;
10987;SDS011;5547;42.672;23.230;2023-12-22T00:35:27;38.13;;;25.33;;
10987;SDS011;5547;42.672;23.230;2023-12-22T00:39:25;36.78;;;25.23;;
10987;SDS011;5547;42.672;23.230;2023-12-22T00:43:24;38.60;;;26.13;;
10987;SDS011;5547;42.672;23.230;2023-12-22T00:47:25;34.77;;;22.13;;
10987;SDS011;5547;42.672;23.230;2023-12-22T00:51:24;30.23;;;20.15;;
10987;SDS011;5547;42.672;23.230;2023-12-22T00:55:23;30.25;;;20.23;;
10987;SDS011;5547;42.672;23.230;2023-12-22T00:59:22;28.45;;;19.15;;
10987;SDS011;5547;42.672;23.230;2023-12-22T01:03:21;26.83;;;17.65;;
10987;SDS011;5547;42.672;23.230;2023-12-22T01:07:20;29.27;;;18.70;;
10987;SDS011;5547;42.672;23.230;2023-12-22T01:11:20;27.00;;;18.48;;
10987;SDS011;5547;42.672;23.230;2023-12-22T01:15:19;26.73;;;17.93;;
10987;SDS011;5547;42.672;23.230;2023-12-22T01:19:21;24.77;;;16.55;;
10987;SDS011;5547;42.672;23.230;2023-12-22T01:23:20;25.58;;;17.63;;
10987;SDS011;5547;42.672;23.230;2023-12-22T01:27:19;25.67;;;15.75;;
10987;SDS011;5547;42.672;23.230;2023-12-22T01:31:18;24.37;;;16.73;;
10987;SDS011;5547;42.672;23.230;2023-12-22T01:35:17;24.90;;;17.25;;
10987;SDS011;5547;42.672;23.230;2023-12-22T01:39:16;26.23;;;17.02;;
10987;SDS011;5547;42.672;23.230;2023-12-22T01:43:15;26.50;;;16.70;;
10987;SDS011;5547;42.672;23.230;2023-12-22T01:47:14;23.67;;;16.30;;
10987;SDS011;5547;42.672;23.230;2023-12-22T01:51:13;25.25;;;16.83;;
10987;SDS011;5547;42.672;23.230;2023-12-22T01:55:12;29.40;;;18.30;;
10987;SDS011;5547;42.672;23.230;2023-12-22T01:59:12;33.70;;;19.80;;
10987;SDS011;5547;42.672;23.230;2023-12-22T02:03:12;30.60;;;18.35;;
10987;SDS011;5547;42.672;23.230;2023-12-22T02:07:12;28.02;;;18.02;;
10987;SDS011;5547;42.672;23.230;2023-12-22T02:11:11;28.20;;;17.83;;
10987;SDS011;5547;42.672;23.230;2023-12-22T02:15:10;24.33;;;16.00;;
10987;SDS011;5547;42.672;23.230;2023-12-22T02:19:35;5.07;;;3.47;;
10987;SDS011;5547;42.672;23.230;2023-12-22T02:23:38;4.20;;;2.15;;
10987;SDS011;5547;42.672;23.230;2023-12-22T02:27:40;4.07;;;2.30;;
10987;SDS011;5547;42.672;23.230;2023-12-22T02:31:45;2.97;;;2.20;;
10987;SDS011;5547;42.672;23.230;2023-12-22T02:35:49;3.00;;;2.27;;
10987;SDS011;5547;42.672;23.230;2023-12-22T02:39:49;3.90;;;2.30;;
10987;SDS011;5547;42.672;23.230;2023-12-22T02:43:49;3.40;;;2.22;;
10987;SDS011;5547;42.672;23.230;2023-12-22T02:47:48;3.67;;;2.30;;
10987;SDS011;5547;42.672;23.230;2023-12-22T02:51:47;22.63;;;14.40;;
10987;SDS011;5547;42.672;23.230;2023-12-22T02:55:46;20.55;;;15.07;;
10987;SDS011;5547;42.672;23.230;2023-12-22T02:59:48;24.70;;;16.13;;
10987;SDS011;5547;42.672;23.230;2023-12-22T03:03:47;20.17;;;13.90;;
10987;SDS011;5547;42.672;23.230;2023-12-22T03:07:48;24.08;;;15.57;;
10987;SDS011;5547;42.672;23.230;2023-12-22T03:11:47;17.88;;;11.63;;
10987;SDS011;5547;42.672;23.230;2023-12-22T03:15:46;3.75;;;2.60;;
10987;SDS011;5547;42.672;23.230;2023-12-22T03:19:45;3.78;;;2.78;;
10987;SDS011;5547;42.672;23.230;2023-12-22T03:23:44;6.68;;;3.88;;
10987;SDS011;5547;42.672;23.230;2023-12-22T03:27:43;3.40;;;2.38;;
10987;SDS011;5547;42.672;23.230;2023-12-22T03:31:42;19.63;;;13.65;;
10987;SDS011;5547;42.672;23.230;2023-12-22T03:35:41;25.70;;;18.20;;
10987;SDS011;5547;42.672;23.230;2023-12-22T03:39:40;28.33;;;18.63;;
10987;SDS011;5547;42.672;23.230;2023-12-22T03:43:39;27.70;;;18.90;;
10987;SDS011;5547;42.672;23.230;2023-12-22T03:47:38;29.75;;;19.48;;
10987;SDS011;5547;42.672;23.230;2023-12-22T03:51:37;33.53;;;19.92;;
10987;SDS011;5547;42.672;23.230;2023-12-22T03:55:36;27.98;;;18.85;;
10987;SDS011;5547;42.672;23.230;2023-12-22T03:59:35;30.08;;;21.13;;
10987;SDS011;5547;42.672;23.230;2023-12-22T04:03:34;31.83;;;22.00;;
10987;SDS011;5547;42.672;23.230;2023-12-22T04:07:37;35.30;;;21.70;;
10987;SDS011;5547;42.672;23.230;2023-12-22T04:11:36;32.07;;;21.90;;
10987;SDS011;5547;42.672;23.230;2023-12-22T04:15:36;30.95;;;21.73;;
10987;SDS011;5547;42.672;23.230;2023-12-22T04:19:38;34.60;;;22.38;;
10987;SDS011;5547;42.672;23.230;2023-12-22T04:23:37;36.45;;;23.98;;
10987;SDS011;5547;42.672;23.230;2023-12-22T04:27:36;33.93;;;22.97;;
10987;SDS011;5547;42.672;23.230;2023-12-22T04:31:35;31.00;;;22.23;;
10987;SDS011;5547;42.672;23.230;2023-12-22T04:35:34;31.70;;;20.63;;
10987;SDS011;5547;42.672;23.230;2023-12-22T04:39:33;24.08;;;16.13;;
10987;SDS011;5547;42.672;23.230;2023-12-22T04:43:31;8.03;;;5.53;;
10987;SDS011;5547;42.672;23.230;2023-12-22T04:47:30;9.35;;;5.82;;
10987;SDS011;5547;42.672;23.230;2023-12-22T04:51:29;7.60;;;4.90;;
10987;SDS011;5547;42.672;23.230;2023-12-22T04:55:29;8.95;;;6.40;;
10987;SDS011;5547;42.672;23.230;2023-12-22T04:59:27;6.47;;;4.38;;
10987;SDS011;5547;42.672;23.230;2023-12-22T05:03:26;5.73;;;4.60;;
10987;SDS011;5547;42.672;23.230;2023-12-22T05:07:25;3.95;;;3.35;;
10987;SDS011;5547;42.672;23.230;2023-12-22T05:11:24;4.10;;;3.70;;
10987;SDS011;5547;42.672;23.230;2023-12-22T05:15:23;3.87;;;3.17;;
10987;SDS011;5547;42.672;23.230;2023-12-22T05:19:22;4.80;;;3.00;;
10987;SDS011;5547;42.672;23.230;2023-12-22T05:23:21;3.53;;;3.10;;
10987;SDS011;5547;42.672;23.230;2023-12-22T05:27:20;4.63;;;3.00;;
10987;SDS011;5547;42.672;23.230;2023-12-22T05:31:19;3.53;;;2.90;;
10987;SDS011;5547;42.672;23.230;2023-12-22T05:35:18;3.20;;;2.65;;
10987;SDS011;5547;42.672;23.230;2023-12-22T05:39:17;3.20;;;2.72;;
10987;SDS011;5547;42.672;23.230;2023-12-22T05:43:16;3.58;;;2.65;;
10987;SDS011;5547;42.672;23.230;2023-12-22T05:47:15;3.37;;;2.33;;
10987;SDS011;5547;42.672;23.230;2023-12-22T05:51:14;2.63;;;2.30;;
10987;SDS011;5547;42.672;23.230;2023-12-22T05:55:13;2.93;;;2.57;;
10987;SDS011;5547;42.672;23.230;2023-12-22T05:59:19;4.00;;;2.70;;
10987;SDS011;5547;42.672;23.230;2023-12-22T06:03:18;3.05;;;2.47;;
10987;SDS011;5547;42.672;23.230;2023-12-22T06:07:17;3.20;;;2.10;;
10987;SDS011;5547;42.672;23.230;2023-12-22T06:11:16;2.63;;;2.10;;
10987;SDS011;5547;42.672;23.230;2023-12-22T06:15:15;2.65;;;2.38;;
10987;SDS011;5547;42.672;23.230;2023-12-22T06:19:14;2.78;;;2.13;;
10987;SDS011;5547;42.672;23.230;2023-12-22T06:23:13;2.90;;;2.22;;
10987;SDS011;5547;42.672;23.230;2023-12-22T06:27:12;3.03;;;2.00;;
10987;SDS011;5547;42.672;23.230;2023-12-22T06:31:18;3.10;;;2.72;;
10987;SDS011;5547;42.672;23.230;2023-12-22T06:35:17;5.85;;;4.70;;
10987;SDS011;5547;42.672;23.230;2023-12-22T06:39:22;16.63;;;11.38;;
10987;SDS011;5547;42.672;23.230;2023-12-22T06:43:21;17.00;;;12.00;;
10987;SDS011;5547;42.672;23.230;2023-12-22T06:47:20;17.40;;;11.02;;
10987;SDS011;5547;42.672;23.230;2023-12-22T06:51:26;19.02;;;14.05;;
10987;SDS011;5547;42.672;23.230;2023-12-22T06:55:25;16.70;;;11.80;;
10987;SDS011;5547;42.672;23.230;2023-12-22T06:59:25;7.25;;;6.25;;
10987;SDS011;5547;42.672;23.230;2023-12-22T07:03:24;8.23;;;6.23;;
10987;SDS011;5547;42.672;23.230;2023-12-22T07:07:42;3.50;;;2.60;;
10987;SDS011;5547;42.672;23.230;2023-12-22T07:11:42;2.80;;;2.25;;
10987;SDS011;5547;42.672;23.230;2023-12-22T07:15:40;4.28;;;3.17;;
10987;SDS011;5547;42.672;23.230;2023-12-22T07:19:39;5.10;;;3.92;;
10987;SDS011;5547;42.672;23.230;2023-12-22T07:23:39;2.25;;;1.95;;
10987;SDS011;5547;42.672;23.230;2023-12-22T07:27:38;2.33;;;1.98;;
10987;SDS011;5547;42.672;23.230;2023-12-22T07:31:37;2.35;;;1.70;;
10987;SDS011;5547;42.672;23.230;2023-12-22T07:35:36;4.72;;;4.07;;
10987;SDS011;5547;42.672;23.230;2023-12-22T07:39:35;2.33;;;2.00;;
10987;SDS011;5547;42.672;23.230;2023-12-22T07:43:34;2.70;;;2.20;;
10987;SDS011;5547;42.672;23.230;2023-12-22T07:47:33;4.43;;;4.13;;
10987;SDS011;5547;42.672;23.230;2023-12-22T07:51:32;3.20;;;2.90;;
10987;SDS011;5547;42.672;23.230;2023-12-22T07:55:31;2.35;;;1.88;;
10987;SDS011;5547;42.672;23.230;2023-12-22T07:59:30;2.20;;;2.00;;
10987;SDS011;5547;42.672;23.230;2023-12-22T08:03:29;3.60;;;2.53;;
10987;SDS011;5547;42.672;23.230;2023-12-22T08:07:28;2.67;;;1.65;;
10987;SDS011;5547;42.672;23.230;2023-12-22T08:11:26;1.92;;;1.63;;
10987;SDS011;5547;42.672;23.230;2023-12-22T08:15:26;1.70;;;1.60;;
10987;SDS011;5547;42.672;23.230;2023-12-22T08:19:25;3.60;;;2.90;;
10987;SDS011;5547;42.672;23.230;2023-12-22T08:23:24;15.10;;;10.00;;
10987;SDS011;5547;42.672;23.230;2023-12-22T08:27:23;7.43;;;5.20;;
10987;SDS011;5547;42.672;23.230;2023-12-22T08:31:22;2.37;;;1.90;;
10987;SDS011;5547;42.672;23.230;2023-12-22T08:35:21;1.58;;;1.10;;
10987;SDS011;5547;42.672;23.230;2023-12-22T08:39:20;2.03;;;1.50;;
10987;SDS011;5547;42.672;23.230;2023-12-22T08:43:25;1.70;;;1.40;;
10987;SDS011;5547;42.672;23.230;2023-12-22T08:47:24;1.25;;;1.00;;
10987;SDS011;5547;42.672;23.230;2023-12-22T08:51:23;1.55;;;1.23;;
10987;SDS011;5547;42.672;23.230;2023-12-22T08:55:22;3.20;;;2.10;;
10987;SDS011;5547;42.672;23.230;2023-12-22T08:59:22;6.93;;;3.70;;
10987;SDS011;5547;42.672;23.230;2023-12-22T09:03:21;6.18;;;4.70;;
10987;SDS011;5547;42.672;23.230;2023-12-22T09:07:25;2.20;;;1.80;;
10987;SDS011;5547;42.672;23.230;2023-12-22T09:11:25;1.80;;;1.50;;
10987;SDS011;5547;42.672;23.230;2023-12-22T09:15:24;3.10;;;2.30;;
10987;SDS011;5547;42.672;23.230;2023-12-22T09:19:25;2.30;;;1.70;;
10987;SDS011;5547;42.672;23.230;2023-12-22T09:23:24;1.30;;;1.13;;
10987;SDS011;5547;42.672;23.230;2023-12-22T09:27:23;4.10;;;2.10;;
10987;SDS011;5547;42.672;23.230;2023-12-22T09:31:22;2.42;;;2.03;;
10987;SDS011;5547;42.672;23.230;2023-12-22T09:35:21;4.82;;;2.00;;
10987;SDS011;5547;42.672;23.230;2023-12-22T09:39:21;4.10;;;2.85;;
10987;SDS011;5547;42.672;23.230;2023-12-22T09:43:22;2.67;;;1.92;;
10987;SDS011;5547;42.672;23.230;2023-12-22T09:47:21;2.78;;;1.65;;
10987;SDS011;5547;42.672;23.230;2023-12-22T09:51:27;3.05;;;2.15;;
10987;SDS011;5547;42.672;23.230;2023-12-22T09:55:28;3.45;;;1.42;;
10987;SDS011;5547;42.672;23.230;2023-12-22T09:59:29;1.50;;;1.10;;
10987;SDS011;5547;42.672;23.230;2023-12-22T10:03:29;1.97;;;1.60;;
10987;SDS011;5547;42.672;23.230;2023-12-22T10:07:29;3.88;;;2.83;;
10987;SDS011;5547;42.672;23.230;2023-12-22T10:11:28;3.93;;;3.23;;
10987;SDS011;5547;42.672;23.230;2023-12-22T10:15:30;2.43;;;1.40;;
10987;SDS011;5547;42.672;23.230;2023-12-22T10:19:29;2.67;;;2.00;;
10987;SDS011;5547;42.672;23.230;2023-12-22T10:23:28;2.75;;;1.92;;
10987;SDS011;5547;42.672;23.230;2023-12-22T10:27:37;2.20;;;1.77;;
10987;SDS011;5547;42.672;23.230;2023-12-22T10:31:42;1.70;;;1.30;;
10987;SDS011;5547;42.672;23.230;2023-12-22T10:35:44;2.30;;;1.40;;
10987;SDS011;5547;42.672;23.230;2023-12-22T10:39:43;1.75;;;1.25;;
10987;SDS011;5547;42.672;23.230;2023-12-22T10:43:42;2.42;;;2.22;;
10987;SDS011;5547;42.672;23.230;2023-12-22T10:47:44;1.45;;;1.10;;
10987;SDS011;5547;42.672;23.230;2023-12-22T10:51:44;1.57;;;1.03;;
10987;SDS011;5547;42.672;23.230;2023-12-22T10:55:48;1.33;;;1.10;;
10987;SDS011;5547;42.672;23.230;2023-12-22T10:59:47;1.07;;;0.83;;
10987;SDS011;5547;42.672;23.230;2023-12-22T11:03:48;1.45;;;1.10;;
10987;SDS011;5547;42.672;23.230;2023-12-22T11:08:10;1.73;;;0.98;;
10987;SDS011;5547;42.672;23.230;2023-12-22T11:12:10;1.20;;;0.80;;
10987;SDS011;5547;42.672;23.230;2023-12-22T11:16:12;1.95;;;1.10;;
10987;SDS011;5547;42.672;23.230;2023-12-22T11:20:14;2.30;;;1.27;;
10987;SDS011;5547;42.672;23.230;2023-12-22T11:24:14;1.77;;;1.45;;
10987;SDS011;5547;42.672;23.230;2023-12-22T11:28:15;1.70;;;1.23;;
10987;SDS011;5547;42.672;23.230;2023-12-22T11:32:18;1.60;;;0.93;;
10987;SDS011;5547;42.672;23.230;2023-12-22T11:36:18;1.37;;;1.00;;
10987;SDS011;5547;42.672;23.230;2023-12-22T11:40:17;1.80;;;1.10;;
10987;SDS011;5547;42.672;23.230;2023-12-22T11:44:18;2.17;;;1.58;;
10987;SDS011;5547;42.672;23.230;2023-12-22T11:48:18;1.90;;;1.30;;
10987;SDS011;5547;42.672;23.230;2023-12-22T11:52:17;2.50;;;1.40;;
10987;SDS011;5547;42.672;23.230;2023-12-22T11:56:20;1.33;;;1.00;;
10987;SDS011;5547;42.672;23.230;2023-12-22T12:04:31;1.27;;;0.90;;
10987;SDS011;5547;42.672;23.230;2023-12-22T12:08:32;1.70;;;1.05;;
10987;SDS011;5547;42.672;23.230;2023-12-22T12:12:45;2.70;;;1.45;;
10987;SDS011;5547;42.672;23.230;2023-12-22T12:16:45;1.80;;;1.30;;
10987;SDS011;5547;42.672;23.230;2023-12-22T12:20:44;1.70;;;0.95;;
10987;SDS011;5547;42.672;23.230;2023-12-22T12:24:43;1.58;;;0.90;;
10987;SDS011;5547;42.672;23.230;2023-12-22T12:28:44;1.30;;;0.85;;
10987;SDS011;5547;42.672;23.230;2023-12-22T12:32:43;1.25;;;1.15;;
10987;SDS011;5547;42.672;23.230;2023-12-22T12:36:43;1.80;;;1.10;;
10987;SDS011;5547;42.672;23.230;2023-12-22T12:40:44;1.58;;;0.80;;
10987;SDS011;5547;42.672;23.230;2023-12-22T12:44:47;1.80;;;1.40;;
10987;SDS011;5547;42.672;23.230;2023-12-22T12:48:47;2.78;;;2.25;;
10987;SDS011;5547;42.672;23.230;2023-12-22T12:52:46;2.10;;;1.30;;
10987;SDS011;5547;42.672;23.230;2023-12-22T12:56:45;2.20;;;1.60;;
10987;SDS011;5547;42.672;23.230;2023-12-22T13:00:44;2.20;;;1.38;;
10987;SDS011;5547;42.672;23.230;2023-12-22T13:04:47;5.63;;;2.67;;
10987;SDS011;5547;42.672;23.230;2023-12-22T13:08:49;3.80;;;2.72;;
10987;SDS011;5547;42.672;23.230;2023-12-22T13:12:48;2.60;;;1.60;;
10987;SDS011;5547;42.672;23.230;2023-12-22T13:16:48;2.50;;;1.70;;
10987;SDS011;5547;42.672;23.230;2023-12-22T13:20:47;3.22;;;2.42;;
10987;SDS011;5547;42.672;23.230;2023-12-22T13:24:56;3.42;;;2.38;;
10987;SDS011;5547;42.672;23.230;2023-12-22T13:28:57;4.35;;;3.20;;
10987;SDS011;5547;42.672;23.230;2023-12-22T13:32:56;2.30;;;1.75;;
10987;SDS011;5547;42.672;23.230;2023-12-22T13:36:55;3.58;;;2.53;;
10987;SDS011;5547;42.672;23.230;2023-12-22T13:40:54;3.35;;;2.50;;
10987;SDS011;5547;42.672;23.230;2023-12-22T13:44:53;3.65;;;1.98;;
10987;SDS011;5547;42.672;23.230;2023-12-22T13:48:53;2.65;;;1.98;;
10987;SDS011;5547;42.672;23.230;2023-12-22T13:52:53;2.23;;;1.53;;
10987;SDS011;5547;42.672;23.230;2023-12-22T13:56:52;2.08;;;1.45;;
10987;SDS011;5547;42.672;23.230;2023-12-22T14:00:59;2.45;;;1.40;;
10987;SDS011;5547;42.672;23.230;2023-12-22T14:05:11;2.47;;;1.73;;
10987;SDS011;5547;42.672;23.230;2023-12-22T14:09:12;1.80;;;1.50;;
10987;SDS011;5547;42.672;23.230;2023-12-22T14:13:11;2.60;;;1.75;;
10987;SDS011;5547;42.672;23.230;2023-12-22T14:17:12;3.22;;;1.88;;
10987;SDS011;5547;42.672;23.230;2023-12-22T14:21:11;5.30;;;3.10;;
10987;SDS011;5547;42.672;23.230;2023-12-22T14:25:10;3.47;;;2.15;;
10987;SDS011;5547;42.672;23.230;2023-12-22T14:29:09;4.45;;;2.97;;
10987;SDS011;5547;42.672;23.230;2023-12-22T14:33:08;2.20;;;1.63;;
10987;SDS011;5547;42.672;23.230;2023-12-22T14:37:08;3.50;;;1.70;;
10987;SDS011;5547;42.672;23.230;2023-12-22T14:41:07;2.67;;;1.90;;
10987;SDS011;5547;42.672;23.230;2023-12-22T14:45:06;3.22;;;1.88;;
10987;SDS011;5547;42.672;23.230;2023-12-22T14:49:06;4.00;;;2.17;;
10987;SDS011;5547;42.672;23.230;2023-12-22T14:53:05;2.63;;;1.95;;
10987;SDS011;5547;42.672;23.230;2023-12-22T14:57:05;2.55;;;1.90;;
10987;SDS011;5547;42.672;23.230;2023-12-22T15:01:11;2.08;;;1.55;;
10987;SDS011;5547;42.672;23.230;2023-12-22T15:05:10;2.72;;;1.40;;
10987;SDS011;5547;42.672;23.230;2023-12-22T15:09:09;2.08;;;1.52;;
10987;SDS011;5547;42.672;23.230;2023-12-22T15:13:09;4.67;;;2.87;;
10987;SDS011;5547;42.672;23.230;2023-12-22T15:17:08;5.65;;;3.50;;
10987;SDS011;5547;42.672;23.230;2023-12-22T15:21:07;3.47;;;2.70;;
10987;SDS011;5547;42.672;23.230;2023-12-22T15:25:06;3.03;;;2.38;;
10987;SDS011;5547;42.672;23.230;2023-12-22T15:29:05;4.10;;;2.33;;
10987;SDS011;5547;42.672;23.230;2023-12-22T15:33:04;3.40;;;2.40;;
10987;SDS011;5547;42.672;23.230;2023-12-22T15:37:03;3.45;;;2.30;;
10987;SDS011;5547;42.672;23.230;2023-12-22T15:41:03;5.10;;;2.77;;
10987;SDS011;5547;42.672;23.230;2023-12-22T15:45:02;5.00;;;2.90;;
10987;SDS011;5547;42.672;23.230;2023-12-22T15:49:05;4.80;;;2.53;;
10987;SDS011;5547;42.672;23.230;2023-12-22T15:53:05;2.25;;;1.55;;
10987;SDS011;5547;42.672;23.230;2023-12-22T15:57:05;2.72;;;1.67;;
10987;SDS011;5547;42.672;23.230;2023-12-22T16:01:04;2.43;;;1.50;;
10987;SDS011;5547;42.672;23.230;2023-12-22T16:05:03;3.13;;;1.90;;
10987;SDS011;5547;42.672;23.230;2023-12-22T16:09:03;3.83;;;2.37;;
10987;SDS011;5547;42.672;23.230;2023-12-22T16:13:03;4.60;;;3.00;;
10987;SDS011;5547;42.672;23.230;2023-12-22T16:17:02;2.78;;;2.00;;
10987;SDS011;5547;42.672;23.230;2023-12-22T16:21:01;3.50;;;1.90;;
10987;SDS011;5547;42.672;23.230;2023-12-22T16:25:01;4.23;;;2.50;;
10987;SDS011;5547;42.672;23.230;2023-12-22T16:29:02;4.95;;;3.08;;
10987;SDS011;5547;42.672;23.230;2023-12-22T16:33:02;5.17;;;2.63;;
10987;SDS011;5547;42.672;23.230;2023-12-22T16:37:02;3.10;;;2.00;;
10987;SDS011;5547;42.672;23.230;2023-12-22T16:41:03;6.63;;;2.80;;
10987;SDS011;5547;42.672;23.230;2023-12-22T16:45:02;2.97;;;1.70;;
10987;SDS011;5547;42.672;23.230;2023-12-22T16:49:01;3.13;;;2.17;;
10987;SDS011;5547;42.672;23.230;2023-12-22T16:53:00;3.30;;;2.30;;
10987;SDS011;5547;42.672;23.230;2023-12-22T16:57:02;3.00;;;1.90;;
10987;SDS011;5547;42.672;23.230;2023-12-22T17:01:01;2.78;;;1.83;;
10987;SDS011;5547;42.672;23.230;2023-12-22T17:05:00;2.10;;;1.73;;
10987;SDS011;5547;42.672;23.230;2023-12-22T17:09:00;2.80;;;2.08;;
10987;SDS011;5547;42.672;23.230;2023-12-22T17:12:59;2.60;;;1.70;;
10987;SDS011;5547;42.672;23.230;2023-12-22T17:16:58;2.77;;;1.60;;
10987;SDS011;5547;42.672;23.230;2023-12-22T17:20:58;1.98;;;1.27;;
10987;SDS011;5547;42.672;23.230;2023-12-22T17:24:57;2.63;;;1.43;;
10987;SDS011;5547;42.672;23.230;2023-12-22T17:28:56;2.90;;;2.10;;
10987;SDS011;5547;42.672;23.230;2023-12-22T17:32:56;2.92;;;1.75;;
10987;SDS011;5547;42.672;23.230;2023-12-22T17:36:57;2.85;;;1.83;;
10987;SDS011;5547;42.672;23.230;2023-12-22T17:40:56;2.88;;;1.60;;
10987;SDS011;5547;42.672;23.230;2023-12-22T17:44:56;3.88;;;1.70;;
10987;SDS011;5547;42.672;23.230;2023-12-22T17:48:56;4.28;;;2.08;;
10987;SDS011;5547;42.672;23.230;2023-12-22T17:52:55;4.93;;;2.35;;
10987;SDS011;5547;42.672;23.230;2023-12-22T17:56:54;6.35;;;3.38;;
10987;SDS011;5547;42.672;23.230;2023-12-22T18:00:54;3.97;;;2.60;;
10987;SDS011;5547;42.672;23.230;2023-12-22T18:04:54;6.25;;;2.83;;
10987;SDS011;5547;42.672;23.230;2023-12-22T18:08:53;4.32;;;2.42;;
10987;SDS011;5547;42.672;23.230;2023-12-22T18:12:53;4.97;;;2.53;;
10987;SDS011;5547;42.672;23.230;2023-12-22T18:16:53;4.10;;;2.35;;
10987;SDS011;5547;42.672;23.230;2023-12-22T18:20:53;3.40;;;1.80;;
10987;SDS011;5547;42.672;23.230;2023-12-22T18:24:52;3.63;;;2.30;;
10987;SDS011;5547;42.672;23.230;2023-12-22T18:28:52;3.10;;;2.10;;
10987;SDS011;5547;42.672;23.230;2023-12-22T18:32:51;3.33;;;2.10;;
10987;SDS011;5547;42.672;23.230;2023-12-22T18:36:50;3.33;;;1.80;;
10987;SDS011;5547;42.672;23.230;2023-12-22T18:40:50;3.72;;;1.98;;
10987;SDS011;5547;42.672;23.230;2023-12-22T18:44:49;2.50;;;1.85;;
10987;SDS011;5547;42.672;23.230;2023-12-22T18:48:48;3.33;;;1.63;;
10987;SDS011;5547;42.672;23.230;2023-12-22T18:52:48;2.70;;;1.75;;
10987;SDS011;5547;42.672;23.230;2023-12-22T18:56:47;2.90;;;1.70;;
10987;SDS011;5547;42.672;23.230;2023-12-22T19:00:47;3.28;;;1.48;;
10987;SDS011;5547;42.672;23.230;2023-12-22T19:04:46;4.43;;;2.85;;
10987;SDS011;5547;42.672;23.230;2023-12-22T19:08:46;2.27;;;1.40;;
10987;SDS011;5547;42.672;23.230;2023-12-22T19:12:45;3.20;;;1.60;;
10987;SDS011;5547;42.672;23.230;2023-12-22T19:16:45;2.75;;;1.60;;
10987;SDS011;5547;42.672;23.230;2023-12-22T19:20:44;2.50;;;1.52;;
10987;SDS011;5547;42.672;23.230;2023-12-22T19:24:43;2.35;;;1.40;;
10987;SDS011;5547;42.672;23.230;2023-12-22T19:28:42;2.30;;;1.67;;
10987;SDS011;5547;42.672;23.230;2023-12-22T19:32:41;2.78;;;1.25;;
10987;SDS011;5547;42.672;23.230;2023-12-22T19:36:40;2.50;;;1.20;;
10987;SDS011;5547;42.672;23.230;2023-12-22T19:40:39;2.20;;;1.70;;
10987;SDS011;5547;42.672;23.230;2023-12-22T19:44:39;2.70;;;1.75;;
10987;SDS011;5547;42.672;23.230;2023-12-22T19:48:38;1.98;;;1.33;;
10987;SDS011;5547;42.672;23.230;2023-12-22T19:52:37;1.33;;;1.00;;
10987;SDS011;5547;42.672;23.230;2023-12-22T19:56:36;1.73;;;1.20;;
10987;SDS011;5547;42.672;23.230;2023-12-22T20:00:35;1.35;;;0.80;;
10987;SDS011;5547;42.672;23.230;2023-12-22T20:04:37;3.92;;;2.40;;
10987;SDS011;5547;42.672;23.230;2023-12-22T20:08:36;3.17;;;2.33;;
10987;SDS011;5547;42.672;23.230;2023-12-22T20:12:35;3.00;;;1.80;;
10987;SDS011;5547;42.672;23.230;2023-12-22T20:16:34;1.57;;;1.07;;
10987;SDS011;5547;42.672;23.230;2023-12-22T20:20:34;1.52;;;1.20;;
10987;SDS011;5547;42.672;23.230;2023-12-22T20:24:33;1.73;;;1.30;;
10987;SDS011;5547;42.672;23.230;2023-12-22T20:28:32;2.85;;;1.70;;
10987;SDS011;5547;42.672;23.230;2023-12-22T20:32:31;2.67;;;1.27;;
10987;SDS011;5547;42.672;23.230;2023-12-22T20:36:30;2.72;;;1.27;;
10987;SDS011;5547;42.672;23.230;2023-12-22T20:40:29;2.50;;;1.25;;
10987;SDS011;5547;42.672;23.230;2023-12-22T20:44:28;1.73;;;1.20;;
10987;SDS011;5547;42.672;23.230;2023-12-22T20:48:27;1.50;;;1.10;;
10987;SDS011;5547;42.672;23.230;2023-12-22T20:52:26;2.10;;;1.00;;
10987;SDS011;5547;42.672;23.230;2023-12-22T20:56:25;2.08;;;1.40;;
10987;SDS011;5547;42.672;23.230;2023-12-22T21:00:24;2.20;;;1.20;;
10987;SDS011;5547;42.672;23.230;2023-12-22T21:04:23;2.42;;;1.55;;
10987;SDS011;5547;42.672;23.230;2023-12-22T21:08:23;1.58;;;1.35;;
10987;SDS011;5547;42.672;23.230;2023-12-22T21:12:22;2.33;;;1.30;;
10987;SDS011;5547;42.672;23.230;2023-12-22T21:16:21;2.03;;;1.40;;
10987;SDS011;5547;42.672;23.230;2023-12-22T21:20:20;1.93;;;1.10;;
10987;SDS011;5547;42.672;23.230;2023-12-22T21:24:19;2.40;;;1.58;;
10987;SDS011;5547;42.672;23.230;2023-12-22T21:28:19;2.60;;;1.60;;
10987;SDS011;5547;42.672;23.230;2023-12-22T21:32:18;2.92;;;1.75;;
10987;SDS011;5547;42.672;23.230;2023-12-22T21:36:20;2.08;;;1.40;;
10987;SDS011;5547;42.672;23.230;2023-12-22T21:40:22;1.85;;;1.30;;
10987;SDS011;5547;42.672;23.230;2023-12-22T21:44:21;2.75;;;1.73;;
10987;SDS011;5547;42.672;23.230;2023-12-22T21:48:20;1.67;;;0.90;;
10987;SDS011;5547;42.672;23.230;2023-12-22T21:52:19;1.70;;;1.00;;
10987;SDS011;5547;42.672;23.230;2023-12-22T21:56:19;1.60;;;1.13;;
10987;SDS011;5547;42.672;23.230;2023-12-22T22:00:18;1.60;;;1.10;;
10987;SDS011;5547;42.672;23.230;2023-12-22T22:04:17;4.10;;;1.70;;
10987;SDS011;5547;42.672;23.230;2023-12-22T22:08:16;3.17;;;2.40;;
10987;SDS011;5547;42.672;23.230;2023-12-22T22:12:15;1.45;;;1.08;;
10987;SDS011;5547;42.672;23.230;2023-12-22T22:16:14;2.35;;;1.50;;
10987;SDS011;5547;42.672;23.230;2023-12-22T22:20:13;1.92;;;1.10;;
10987;SDS011;5547;42.672;23.230;2023-12-22T22:24:13;1.60;;;1.10;;
10987;SDS011;5547;42.672;23.230;2023-12-22T22:28:11;1.25;;;0.77;;
10987;SDS011;5547;42.672;23.230;2023-12-22T22:32:11;2.40;;;1.13;;
10987;SDS011;5547;42.672;23.230;2023-12-22T22:36:10;1.63;;;1.00;;
10987;SDS011;5547;42.672;23.230;2023-12-22T22:40:09;2.15;;;1.15;;
10987;SDS011;5547;42.672;23.230;2023-12-22T22:44:09;1.50;;;1.13;;
10987;SDS011;5547;42.672;23.230;2023-12-22T22:48:08;1.50;;;0.90;;
10987;SDS011;5547;42.672;23.230;2023-12-22T22:52:11;2.07;;;1.47;;
10987;SDS011;5547;42.672;23.230;2023-12-22T22:56:09;2.05;;;1.20;;
10987;SDS011;5547;42.672;23.230;2023-12-22T23:00:08;2.38;;;1.10;;
10987;SDS011;5547;42.672;23.230;2023-12-22T23:04:08;1.70;;;0.90;;
10987;SDS011;5547;42.672;23.230;2023-12-22T23:08:07;1.63;;;1.00;;
10987;SDS011;5547;42.672;23.230;2023-12-22T23:12:07;1.17;;;1.00;;
10987;SDS011;5547;42.672;23.230;2023-12-22T23:16:07;1.70;;;0.90;;
10987;SDS011;5547;42.672;23.230;2023-12-22T23:20:06;1.08;;;0.80;;
10987;SDS011;5547;42.672;23.230;2023-12-22T23:24:05;0.90;;;0.70;;
10987;SDS011;5547;42.672;23.230;2023-12-22T23:28:05;1.13;;;0.90;;
10987;SDS011;5547;42.672;23.230;2023-12-22T23:32:04;1.02;;;0.80;;
10987;SDS011;5547;42.672;23.230;2023-12-22T23:36:04;1.33;;;0.90;;
10987;SDS011;5547;42.672;23.230;2023-12-22T23:40:03;1.52;;;1.17;;
10987;SDS011;5547;42.672;23.230;2023-12-22T23:44:03;1.90;;;1.20;;
10987;SDS011;5547;42.672;23.230;2023-12-22T23:48:03;1.48;;;1.13;;
10987;SDS011;5547;42.672;23.230;2023-12-22T23:52:02;2.25;;;1.17;;
10987;SDS011;5547;42.672;23.230;2023-12-22T23:56:01;1.10;;;0.90;;
